sensor_id;sensor_type;location;lat;lon;timestamp;P1;durP1;ratioP1;P2;durP2;ratioP2
50350;SDS011;36250;48.740;22.174;2022-12-07T00:01:12;16.02;;;13.30;;
50350;SDS011;36250;48.740;22.174;2022-12-07T00:03:40;16.73;;;13.93;;
50350;SDS011;36250;48.740;22.174;2022-12-07T00:06:08;21.90;;;14.45;;
50350;SDS011;36250;48.740;22.174;2022-12-07T00:08:35;23.13;;;15.88;;
50350;SDS011;36250;48.740;22.174;2022-12-07T00:11:03;25.80;;;17.80;;
50350;SDS011;36250;48.740;22.174;2022-12-07T00:13:31;21.02;;;14.15;;
50350;SDS011;36250;48.740;22.174;2022-12-07T00:16:05;18.15;;;13.55;;
50350;SDS011;36250;48.740;22.174;2022-12-07T00:18:35;17.25;;;11.57;;
50350;SDS011;36250;48.740;22.174;2022-12-07T00:23:27;12.10;;;9.88;;
50350;SDS011;36250;48.740;22.174;2022-12-07T00:25:52;17.02;;;10.40;;
50350;SDS011;36250;48.740;22.174;2022-12-07T00:28:18;14.30;;;12.32;;
50350;SDS011;36250;48.740;22.174;2022-12-07T00:30:43;11.68;;;10.40;;
50350;SDS011;36250;48.740;22.174;2022-12-07T00:33:08;14.05;;;11.35;;
50350;SDS011;36250;48.740;22.174;2022-12-07T00:35:34;17.67;;;11.45;;
50350;SDS011;36250;48.740;22.174;2022-12-07T00:37:59;13.30;;;11.70;;
50350;SDS011;36250;48.740;22.174;2022-12-07T00:40:24;16.60;;;10.68;;
50350;SDS011;36250;48.740;22.174;2022-12-07T00:42:49;15.35;;;11.15;;
50350;SDS011;36250;48.740;22.174;2022-12-07T00:45:15;12.30;;;10.32;;
50350;SDS011;36250;48.740;22.174;2022-12-07T00:47:41;15.02;;;10.70;;
50350;SDS011;36250;48.740;22.174;2022-12-07T00:50:07;11.55;;;9.95;;
50350;SDS011;36250;48.740;22.174;2022-12-07T00:52:33;11.90;;;10.48;;
50350;SDS011;36250;48.740;22.174;2022-12-07T00:54:58;14.20;;;10.65;;
50350;SDS011;36250;48.740;22.174;2022-12-07T00:57:23;12.00;;;10.55;;
50350;SDS011;36250;48.740;22.174;2022-12-07T00:59:49;13.00;;;11.05;;
50350;SDS011;36250;48.740;22.174;2022-12-07T01:02:14;12.70;;;11.35;;
50350;SDS011;36250;48.740;22.174;2022-12-07T01:04:39;12.82;;;11.52;;
50350;SDS011;36250;48.740;22.174;2022-12-07T01:07:05;13.98;;;11.57;;
50350;SDS011;36250;48.740;22.174;2022-12-07T01:09:30;12.68;;;10.80;;
50350;SDS011;36250;48.740;22.174;2022-12-07T01:11:55;14.02;;;11.85;;
50350;SDS011;36250;48.740;22.174;2022-12-07T01:14:21;16.33;;;12.55;;
50350;SDS011;36250;48.740;22.174;2022-12-07T01:16:46;13.93;;;11.80;;
50350;SDS011;36250;48.740;22.174;2022-12-07T01:19:11;16.52;;;12.38;;
50350;SDS011;36250;48.740;22.174;2022-12-07T01:21:37;13.38;;;11.73;;
50350;SDS011;36250;48.740;22.174;2022-12-07T01:24:04;12.82;;;10.73;;
50350;SDS011;36250;48.740;22.174;2022-12-07T01:26:31;14.00;;;11.60;;
50350;SDS011;36250;48.740;22.174;2022-12-07T01:28:56;17.23;;;12.05;;
50350;SDS011;36250;48.740;22.174;2022-12-07T01:31:24;14.30;;;11.32;;
50350;SDS011;36250;48.740;22.174;2022-12-07T01:33:51;13.45;;;11.35;;
50350;SDS011;36250;48.740;22.174;2022-12-07T01:36:20;13.90;;;12.35;;
50350;SDS011;36250;48.740;22.174;2022-12-07T01:38:50;19.65;;;11.93;;
50350;SDS011;36250;48.740;22.174;2022-12-07T01:41:21;13.70;;;11.45;;
50350;SDS011;36250;48.740;22.174;2022-12-07T01:46:36;14.70;;;12.63;;
50350;SDS011;36250;48.740;22.174;2022-12-07T01:49:03;14.15;;;11.90;;
50350;SDS011;36250;48.740;22.174;2022-12-07T01:51:31;15.50;;;12.45;;
50350;SDS011;36250;48.740;22.174;2022-12-07T01:53:56;14.00;;;11.80;;
50350;SDS011;36250;48.740;22.174;2022-12-07T01:56:23;14.70;;;12.18;;
50350;SDS011;36250;48.740;22.174;2022-12-07T01:58:51;14.50;;;11.65;;
50350;SDS011;36250;48.740;22.174;2022-12-07T02:01:17;13.50;;;11.70;;
50350;SDS011;36250;48.740;22.174;2022-12-07T02:03:43;15.77;;;12.35;;
50350;SDS011;36250;48.740;22.174;2022-12-07T02:06:10;16.10;;;13.00;;
50350;SDS011;36250;48.740;22.174;2022-12-07T02:08:38;22.48;;;13.07;;
50350;SDS011;36250;48.740;22.174;2022-12-07T02:11:04;16.40;;;13.90;;
50350;SDS011;36250;48.740;22.174;2022-12-07T02:13:31;16.17;;;13.38;;
50350;SDS011;36250;48.740;22.174;2022-12-07T02:21:50;20.42;;;15.35;;
50350;SDS011;36250;48.740;22.174;2022-12-07T02:27:10;22.45;;;15.35;;
50350;SDS011;36250;48.740;22.174;2022-12-07T02:30:10;17.05;;;14.88;;
50350;SDS011;36250;48.740;22.174;2022-12-07T02:32:45;20.05;;;15.48;;
50350;SDS011;36250;48.740;22.174;2022-12-07T02:35:17;22.35;;;16.77;;
50350;SDS011;36250;48.740;22.174;2022-12-07T02:37:52;19.85;;;15.85;;
50350;SDS011;36250;48.740;22.174;2022-12-07T02:40:29;21.85;;;16.15;;
50350;SDS011;36250;48.740;22.174;2022-12-07T02:43:00;21.13;;;16.92;;
50350;SDS011;36250;48.740;22.174;2022-12-07T02:45:32;21.20;;;16.23;;
50350;SDS011;36250;48.740;22.174;2022-12-07T02:48:01;24.55;;;17.65;;
50350;SDS011;36250;48.740;22.174;2022-12-07T02:50:28;25.10;;;17.77;;
50350;SDS011;36250;48.740;22.174;2022-12-07T02:52:53;22.63;;;17.00;;
50350;SDS011;36250;48.740;22.174;2022-12-07T02:55:20;25.27;;;18.40;;
50350;SDS011;36250;48.740;22.174;2022-12-07T03:00:26;25.63;;;18.75;;
50350;SDS011;36250;48.740;22.174;2022-12-07T03:02:53;23.23;;;17.35;;
50350;SDS011;36250;48.740;22.174;2022-12-07T03:05:31;21.77;;;17.35;;
50350;SDS011;36250;48.740;22.174;2022-12-07T03:11:07;22.00;;;17.58;;
50350;SDS011;36250;48.740;22.174;2022-12-07T03:13:47;22.52;;;17.45;;
50350;SDS011;36250;48.740;22.174;2022-12-07T03:16:27;26.08;;;18.67;;
50350;SDS011;36250;48.740;22.174;2022-12-07T03:18:58;25.98;;;18.42;;
50350;SDS011;36250;48.740;22.174;2022-12-07T03:21:30;22.40;;;17.73;;
50350;SDS011;36250;48.740;22.174;2022-12-07T03:26:34;22.23;;;16.77;;
50350;SDS011;36250;48.740;22.174;2022-12-07T03:29:05;22.85;;;16.90;;
50350;SDS011;36250;48.740;22.174;2022-12-07T03:31:36;23.15;;;18.38;;
50350;SDS011;36250;48.740;22.174;2022-12-07T03:37:00;22.38;;;17.73;;
50350;SDS011;36250;48.740;22.174;2022-12-07T03:41:58;21.58;;;17.50;;
50350;SDS011;36250;48.740;22.174;2022-12-07T03:44:26;24.17;;;18.35;;
50350;SDS011;36250;48.740;22.174;2022-12-07T03:52:22;22.13;;;17.85;;
50350;SDS011;36250;48.740;22.174;2022-12-07T03:57:24;24.33;;;18.27;;
50350;SDS011;36250;48.740;22.174;2022-12-07T03:59:53;24.40;;;18.83;;
50350;SDS011;36250;48.740;22.174;2022-12-07T04:02:21;22.05;;;17.40;;
50350;SDS011;36250;48.740;22.174;2022-12-07T04:04:47;23.27;;;18.55;;
50350;SDS011;36250;48.740;22.174;2022-12-07T04:07:12;24.35;;;18.73;;
50350;SDS011;36250;48.740;22.174;2022-12-07T04:09:38;25.50;;;19.42;;
50350;SDS011;36250;48.740;22.174;2022-12-07T04:12:03;28.00;;;20.70;;
50350;SDS011;36250;48.740;22.174;2022-12-07T04:14:29;25.85;;;21.05;;
50350;SDS011;36250;48.740;22.174;2022-12-07T04:16:55;25.80;;;21.70;;
50350;SDS011;36250;48.740;22.174;2022-12-07T04:19:23;27.50;;;20.73;;
50350;SDS011;36250;48.740;22.174;2022-12-07T04:22:00;29.33;;;22.15;;
50350;SDS011;36250;48.740;22.174;2022-12-07T04:24:27;28.63;;;20.25;;
50350;SDS011;36250;48.740;22.174;2022-12-07T04:26:53;28.42;;;19.83;;
50350;SDS011;36250;48.740;22.174;2022-12-07T04:29:18;26.33;;;19.90;;
50350;SDS011;36250;48.740;22.174;2022-12-07T04:31:44;27.85;;;19.80;;
50350;SDS011;36250;48.740;22.174;2022-12-07T04:34:10;24.10;;;19.40;;
50350;SDS011;36250;48.740;22.174;2022-12-07T04:36:36;28.90;;;19.60;;
50350;SDS011;36250;48.740;22.174;2022-12-07T04:39:03;27.45;;;20.40;;
50350;SDS011;36250;48.740;22.174;2022-12-07T04:41:29;32.53;;;22.65;;
50350;SDS011;36250;48.740;22.174;2022-12-07T04:43:58;28.33;;;21.52;;
50350;SDS011;36250;48.740;22.174;2022-12-07T04:46:26;32.08;;;24.02;;
50350;SDS011;36250;48.740;22.174;2022-12-07T04:48:53;54.53;;;32.22;;
50350;SDS011;36250;48.740;22.174;2022-12-07T04:51:20;61.83;;;37.85;;
50350;SDS011;36250;48.740;22.174;2022-12-07T04:53:47;29.65;;;22.63;;
50350;SDS011;36250;48.740;22.174;2022-12-07T04:56:13;27.23;;;21.83;;
50350;SDS011;36250;48.740;22.174;2022-12-07T04:58:39;38.88;;;28.00;;
50350;SDS011;36250;48.740;22.174;2022-12-07T05:01:06;32.72;;;27.10;;
50350;SDS011;36250;48.740;22.174;2022-12-07T05:03:31;27.35;;;22.60;;
50350;SDS011;36250;48.740;22.174;2022-12-07T05:05:56;30.70;;;24.85;;
50350;SDS011;36250;48.740;22.174;2022-12-07T05:08:22;29.20;;;25.48;;
50350;SDS011;36250;48.740;22.174;2022-12-07T05:10:48;28.50;;;22.23;;
50350;SDS011;36250;48.740;22.174;2022-12-07T05:13:14;27.20;;;22.45;;
50350;SDS011;36250;48.740;22.174;2022-12-07T05:15:39;26.42;;;21.63;;
50350;SDS011;36250;48.740;22.174;2022-12-07T05:18:05;24.05;;;19.40;;
50350;SDS011;36250;48.740;22.174;2022-12-07T05:20:30;24.55;;;20.30;;
50350;SDS011;36250;48.740;22.174;2022-12-07T05:22:56;30.30;;;21.67;;
50350;SDS011;36250;48.740;22.174;2022-12-07T05:25:23;24.90;;;19.90;;
50350;SDS011;36250;48.740;22.174;2022-12-07T05:27:48;26.30;;;19.88;;
50350;SDS011;36250;48.740;22.174;2022-12-07T05:30:14;29.23;;;20.60;;
50350;SDS011;36250;48.740;22.174;2022-12-07T05:32:39;29.80;;;20.15;;
50350;SDS011;36250;48.740;22.174;2022-12-07T05:35:05;27.67;;;20.67;;
50350;SDS011;36250;48.740;22.174;2022-12-07T05:37:30;30.90;;;23.08;;
50350;SDS011;36250;48.740;22.174;2022-12-07T05:39:56;28.70;;;21.10;;
50350;SDS011;36250;48.740;22.174;2022-12-07T05:42:21;30.23;;;22.08;;
50350;SDS011;36250;48.740;22.174;2022-12-07T05:44:47;29.25;;;21.73;;
50350;SDS011;36250;48.740;22.174;2022-12-07T05:47:13;29.95;;;21.27;;
50350;SDS011;36250;48.740;22.174;2022-12-07T05:49:39;29.63;;;22.65;;
50350;SDS011;36250;48.740;22.174;2022-12-07T05:52:04;30.38;;;21.75;;
50350;SDS011;36250;48.740;22.174;2022-12-07T05:54:30;34.20;;;24.92;;
50350;SDS011;36250;48.740;22.174;2022-12-07T05:56:56;31.92;;;22.92;;
50350;SDS011;36250;48.740;22.174;2022-12-07T05:59:21;31.55;;;23.92;;
50350;SDS011;36250;48.740;22.174;2022-12-07T06:01:58;34.50;;;26.52;;
50350;SDS011;36250;48.740;22.174;2022-12-07T06:04:25;36.40;;;26.45;;
50350;SDS011;36250;48.740;22.174;2022-12-07T06:06:53;35.22;;;25.63;;
50350;SDS011;36250;48.740;22.174;2022-12-07T06:09:19;38.58;;;28.15;;
50350;SDS011;36250;48.740;22.174;2022-12-07T06:11:46;37.42;;;29.08;;
50350;SDS011;36250;48.740;22.174;2022-12-07T06:14:30;37.92;;;28.52;;
50350;SDS011;36250;48.740;22.174;2022-12-07T06:16:55;37.45;;;27.55;;
50350;SDS011;36250;48.740;22.174;2022-12-07T06:19:21;44.30;;;33.45;;
50350;SDS011;36250;48.740;22.174;2022-12-07T06:21:46;36.08;;;28.67;;
50350;SDS011;36250;48.740;22.174;2022-12-07T06:24:13;37.42;;;26.05;;
50350;SDS011;36250;48.740;22.174;2022-12-07T06:26:39;35.90;;;24.35;;
50350;SDS011;36250;48.740;22.174;2022-12-07T06:29:04;36.47;;;24.67;;
50350;SDS011;36250;48.740;22.174;2022-12-07T06:31:30;39.15;;;25.17;;
50350;SDS011;36250;48.740;22.174;2022-12-07T06:33:59;39.97;;;26.33;;
50350;SDS011;36250;48.740;22.174;2022-12-07T06:36:26;35.42;;;25.05;;
50350;SDS011;36250;48.740;22.174;2022-12-07T06:38:52;41.40;;;26.60;;
50350;SDS011;36250;48.740;22.174;2022-12-07T06:41:18;40.92;;;26.35;;
50350;SDS011;36250;48.740;22.174;2022-12-07T06:43:43;35.63;;;24.70;;
50350;SDS011;36250;48.740;22.174;2022-12-07T06:46:08;38.42;;;25.15;;
50350;SDS011;36250;48.740;22.174;2022-12-07T06:48:34;37.95;;;26.17;;
50350;SDS011;36250;48.740;22.174;2022-12-07T06:50:59;39.90;;;26.63;;
50350;SDS011;36250;48.740;22.174;2022-12-07T06:53:25;46.75;;;30.33;;
50350;SDS011;36250;48.740;22.174;2022-12-07T06:55:50;48.30;;;32.88;;
50350;SDS011;36250;48.740;22.174;2022-12-07T06:58:16;42.60;;;27.75;;
50350;SDS011;36250;48.740;22.174;2022-12-07T07:00:42;45.75;;;27.95;;
50350;SDS011;36250;48.740;22.174;2022-12-07T07:03:08;37.38;;;27.10;;
50350;SDS011;36250;48.740;22.174;2022-12-07T07:05:33;39.17;;;26.85;;
50350;SDS011;36250;48.740;22.174;2022-12-07T07:07:59;43.20;;;28.48;;
50350;SDS011;36250;48.740;22.174;2022-12-07T07:10:24;36.17;;;26.33;;
50350;SDS011;36250;48.740;22.174;2022-12-07T07:12:49;47.92;;;30.95;;
50350;SDS011;36250;48.740;22.174;2022-12-07T07:15:15;52.55;;;31.58;;
50350;SDS011;36250;48.740;22.174;2022-12-07T07:17:40;48.83;;;31.42;;
50350;SDS011;36250;48.740;22.174;2022-12-07T07:20:06;53.65;;;31.58;;
50350;SDS011;36250;48.740;22.174;2022-12-07T07:22:31;56.35;;;35.85;;
50350;SDS011;36250;48.740;22.174;2022-12-07T07:24:57;55.03;;;31.73;;
50350;SDS011;36250;48.740;22.174;2022-12-07T07:27:22;46.78;;;30.42;;
50350;SDS011;36250;48.740;22.174;2022-12-07T07:29:47;45.08;;;30.00;;
50350;SDS011;36250;48.740;22.174;2022-12-07T07:32:13;46.00;;;28.77;;
50350;SDS011;36250;48.740;22.174;2022-12-07T07:34:38;40.60;;;26.88;;
50350;SDS011;36250;48.740;22.174;2022-12-07T07:37:04;44.33;;;27.42;;
50350;SDS011;36250;48.740;22.174;2022-12-07T07:39:29;43.30;;;28.90;;
50350;SDS011;36250;48.740;22.174;2022-12-07T07:41:55;43.90;;;29.33;;
50350;SDS011;36250;48.740;22.174;2022-12-07T07:44:20;40.30;;;27.83;;
50350;SDS011;36250;48.740;22.174;2022-12-07T07:46:46;45.13;;;29.65;;
50350;SDS011;36250;48.740;22.174;2022-12-07T07:49:11;45.97;;;32.92;;
50350;SDS011;36250;48.740;22.174;2022-12-07T07:51:36;45.22;;;33.13;;
50350;SDS011;36250;48.740;22.174;2022-12-07T07:54:02;47.38;;;36.28;;
50350;SDS011;36250;48.740;22.174;2022-12-07T07:56:28;50.63;;;37.45;;
50350;SDS011;36250;48.740;22.174;2022-12-07T07:58:53;55.78;;;42.75;;
50350;SDS011;36250;48.740;22.174;2022-12-07T08:01:20;55.28;;;42.88;;
50350;SDS011;36250;48.740;22.174;2022-12-07T08:03:46;84.25;;;63.70;;
50350;SDS011;36250;48.740;22.174;2022-12-07T08:06:11;87.47;;;67.40;;
50350;SDS011;36250;48.740;22.174;2022-12-07T08:08:37;78.32;;;59.45;;
50350;SDS011;36250;48.740;22.174;2022-12-07T08:11:06;57.92;;;45.05;;
50350;SDS011;36250;48.740;22.174;2022-12-07T08:13:32;49.75;;;36.78;;
50350;SDS011;36250;48.740;22.174;2022-12-07T08:15:57;44.40;;;31.55;;
50350;SDS011;36250;48.740;22.174;2022-12-07T08:18:23;48.85;;;36.15;;
50350;SDS011;36250;48.740;22.174;2022-12-07T08:20:48;44.97;;;33.25;;
50350;SDS011;36250;48.740;22.174;2022-12-07T08:23:14;52.75;;;39.78;;
50350;SDS011;36250;48.740;22.174;2022-12-07T08:25:39;50.55;;;36.00;;
50350;SDS011;36250;48.740;22.174;2022-12-07T08:28:05;48.85;;;33.38;;
50350;SDS011;36250;48.740;22.174;2022-12-07T08:30:31;47.45;;;34.75;;
50350;SDS011;36250;48.740;22.174;2022-12-07T08:32:57;45.70;;;33.88;;
50350;SDS011;36250;48.740;22.174;2022-12-07T08:35:22;44.78;;;30.75;;
50350;SDS011;36250;48.740;22.174;2022-12-07T08:37:48;34.60;;;25.58;;
50350;SDS011;36250;48.740;22.174;2022-12-07T08:40:13;41.83;;;27.25;;
50350;SDS011;36250;48.740;22.174;2022-12-07T08:42:41;44.63;;;29.25;;
50350;SDS011;36250;48.740;22.174;2022-12-07T08:45:08;37.17;;;25.60;;
50350;SDS011;36250;48.740;22.174;2022-12-07T08:47:37;35.20;;;26.02;;
50350;SDS011;36250;48.740;22.174;2022-12-07T08:50:06;35.67;;;23.35;;
50350;SDS011;36250;48.740;22.174;2022-12-07T08:52:34;33.30;;;23.00;;
50350;SDS011;36250;48.740;22.174;2022-12-07T08:55:01;39.03;;;27.98;;
50350;SDS011;36250;48.740;22.174;2022-12-07T08:57:28;45.22;;;25.75;;
50350;SDS011;36250;48.740;22.174;2022-12-07T08:59:54;57.20;;;36.35;;
50350;SDS011;36250;48.740;22.174;2022-12-07T09:02:20;73.40;;;39.58;;
50350;SDS011;36250;48.740;22.174;2022-12-07T09:04:45;33.65;;;23.73;;
50350;SDS011;36250;48.740;22.174;2022-12-07T09:07:11;33.88;;;21.85;;
50350;SDS011;36250;48.740;22.174;2022-12-07T09:09:36;62.85;;;38.78;;
50350;SDS011;36250;48.740;22.174;2022-12-07T09:12:02;41.42;;;25.48;;
50350;SDS011;36250;48.740;22.174;2022-12-07T09:14:28;37.53;;;24.80;;
50350;SDS011;36250;48.740;22.174;2022-12-07T09:16:53;37.72;;;24.20;;
50350;SDS011;36250;48.740;22.174;2022-12-07T09:19:19;78.05;;;43.60;;
50350;SDS011;36250;48.740;22.174;2022-12-07T09:21:44;73.95;;;43.40;;
50350;SDS011;36250;48.740;22.174;2022-12-07T09:24:11;45.38;;;26.27;;
50350;SDS011;36250;48.740;22.174;2022-12-07T09:26:37;41.28;;;27.65;;
50350;SDS011;36250;48.740;22.174;2022-12-07T09:29:04;40.80;;;27.20;;
50350;SDS011;36250;48.740;22.174;2022-12-07T09:31:29;44.35;;;31.83;;
50350;SDS011;36250;48.740;22.174;2022-12-07T09:33:55;43.00;;;29.70;;
50350;SDS011;36250;48.740;22.174;2022-12-07T09:36:22;46.05;;;30.85;;
50350;SDS011;36250;48.740;22.174;2022-12-07T09:38:47;40.20;;;27.20;;
50350;SDS011;36250;48.740;22.174;2022-12-07T09:41:12;42.00;;;28.00;;
50350;SDS011;36250;48.740;22.174;2022-12-07T09:43:38;47.85;;;29.70;;
50350;SDS011;36250;48.740;22.174;2022-12-07T09:46:05;46.58;;;29.52;;
50350;SDS011;36250;48.740;22.174;2022-12-07T09:48:34;47.95;;;31.50;;
50350;SDS011;36250;48.740;22.174;2022-12-07T09:51:02;52.00;;;31.23;;
50350;SDS011;36250;48.740;22.174;2022-12-07T09:53:38;49.70;;;30.67;;
50350;SDS011;36250;48.740;22.174;2022-12-07T09:56:04;47.75;;;32.72;;
50350;SDS011;36250;48.740;22.174;2022-12-07T09:58:31;53.60;;;34.25;;
50350;SDS011;36250;48.740;22.174;2022-12-07T10:01:00;46.25;;;29.45;;
50350;SDS011;36250;48.740;22.174;2022-12-07T10:03:30;52.55;;;33.42;;
50350;SDS011;36250;48.740;22.174;2022-12-07T10:05:56;47.92;;;30.10;;
50350;SDS011;36250;48.740;22.174;2022-12-07T10:08:22;50.47;;;32.95;;
50350;SDS011;36250;48.740;22.174;2022-12-07T10:10:51;47.60;;;31.08;;
50350;SDS011;36250;48.740;22.174;2022-12-07T10:13:20;50.20;;;31.58;;
50350;SDS011;36250;48.740;22.174;2022-12-07T10:15:52;51.35;;;32.35;;
50350;SDS011;36250;48.740;22.174;2022-12-07T10:34:42;57.88;;;36.92;;
50350;SDS011;36250;48.740;22.174;2022-12-07T10:39:40;56.70;;;34.55;;
50350;SDS011;36250;48.740;22.174;2022-12-07T10:45:07;54.45;;;35.38;;
50350;SDS011;36250;48.740;22.174;2022-12-07T10:53:21;49.70;;;31.85;;
50350;SDS011;36250;48.740;22.174;2022-12-07T11:04:16;48.03;;;31.58;;
50350;SDS011;36250;48.740;22.174;2022-12-07T11:06:47;58.85;;;37.25;;
50350;SDS011;36250;48.740;22.174;2022-12-07T11:16:57;58.75;;;35.58;;
50350;SDS011;36250;48.740;22.174;2022-12-07T11:22:20;54.03;;;36.30;;
50350;SDS011;36250;48.740;22.174;2022-12-07T11:27:44;51.35;;;35.67;;
50350;SDS011;36250;48.740;22.174;2022-12-07T11:30:22;52.88;;;36.00;;
50350;SDS011;36250;48.740;22.174;2022-12-07T11:41:22;62.33;;;38.20;;
50350;SDS011;36250;48.740;22.174;2022-12-07T11:46:55;53.47;;;35.70;;
50350;SDS011;36250;48.740;22.174;2022-12-07T11:49:43;55.78;;;34.17;;
50350;SDS011;36250;48.740;22.174;2022-12-07T11:53:05;53.70;;;35.15;;
50350;SDS011;36250;48.740;22.174;2022-12-07T11:55:16;65.80;;;39.38;;
50350;SDS011;36250;48.740;22.174;2022-12-07T11:57:48;54.55;;;34.65;;
50350;SDS011;36250;48.740;22.174;2022-12-07T12:00:19;57.40;;;34.90;;
50350;SDS011;36250;48.740;22.174;2022-12-07T12:05:18;65.90;;;39.60;;
50350;SDS011;36250;48.740;22.174;2022-12-07T12:08:35;63.05;;;40.10;;
50350;SDS011;36250;48.740;22.174;2022-12-07T12:13:48;57.17;;;36.88;;
50350;SDS011;36250;48.740;22.174;2022-12-07T12:16:38;62.38;;;39.97;;
50350;SDS011;36250;48.740;22.174;2022-12-07T12:19:57;66.15;;;40.90;;
50350;SDS011;36250;48.740;22.174;2022-12-07T12:22:40;71.70;;;43.42;;
50350;SDS011;36250;48.740;22.174;2022-12-07T12:28:21;81.95;;;47.47;;
50350;SDS011;36250;48.740;22.174;2022-12-07T12:31:08;71.22;;;42.92;;
50350;SDS011;36250;48.740;22.174;2022-12-07T12:33:42;58.28;;;37.90;;
50350;SDS011;36250;48.740;22.174;2022-12-07T12:39:26;62.63;;;42.25;;
50350;SDS011;36250;48.740;22.174;2022-12-07T12:44:00;64.93;;;40.88;;
50350;SDS011;36250;48.740;22.174;2022-12-07T12:48:54;63.55;;;45.92;;
50350;SDS011;36250;48.740;22.174;2022-12-07T12:51:35;66.88;;;44.38;;
50350;SDS011;36250;48.740;22.174;2022-12-07T12:54:03;65.85;;;46.10;;
50350;SDS011;36250;48.740;22.174;2022-12-07T12:56:35;72.68;;;49.38;;
50350;SDS011;36250;48.740;22.174;2022-12-07T12:59:22;65.38;;;46.40;;
50350;SDS011;36250;48.740;22.174;2022-12-07T13:04:52;70.93;;;47.50;;
50350;SDS011;36250;48.740;22.174;2022-12-07T13:15:40;58.78;;;38.92;;
50350;SDS011;36250;48.740;22.174;2022-12-07T13:23:22;59.60;;;40.13;;
50350;SDS011;36250;48.740;22.174;2022-12-07T13:25:59;61.70;;;42.38;;
50350;SDS011;36250;48.740;22.174;2022-12-07T13:28:33;79.18;;;47.75;;
50350;SDS011;36250;48.740;22.174;2022-12-07T13:31:11;68.35;;;43.28;;
50350;SDS011;36250;48.740;22.174;2022-12-07T13:33:45;71.80;;;44.63;;
50350;SDS011;36250;48.740;22.174;2022-12-07T13:36:14;86.53;;;49.58;;
50350;SDS011;36250;48.740;22.174;2022-12-07T13:38:51;76.60;;;50.17;;
50350;SDS011;36250;48.740;22.174;2022-12-07T13:41:19;69.90;;;44.50;;
50350;SDS011;36250;48.740;22.174;2022-12-07T13:49:29;86.82;;;55.17;;
50350;SDS011;36250;48.740;22.174;2022-12-07T13:54:45;103.18;;;69.50;;
50350;SDS011;36250;48.740;22.174;2022-12-07T13:57:13;102.20;;;66.93;;
50350;SDS011;36250;48.740;22.174;2022-12-07T13:59:39;123.47;;;77.32;;
50350;SDS011;36250;48.740;22.174;2022-12-07T14:02:21;113.60;;;72.10;;
50350;SDS011;36250;48.740;22.174;2022-12-07T14:04:50;83.80;;;53.83;;
50350;SDS011;36250;48.740;22.174;2022-12-07T14:07:21;84.03;;;54.28;;
50350;SDS011;36250;48.740;22.174;2022-12-07T14:12:31;97.75;;;63.80;;
50350;SDS011;36250;48.740;22.174;2022-12-07T14:14:58;92.10;;;63.53;;
50350;SDS011;36250;48.740;22.174;2022-12-07T14:17:27;93.30;;;66.45;;
50350;SDS011;36250;48.740;22.174;2022-12-07T14:22:30;69.40;;;46.90;;
50350;SDS011;36250;48.740;22.174;2022-12-07T14:27:37;69.50;;;47.67;;
50350;SDS011;36250;48.740;22.174;2022-12-07T14:30:03;68.63;;;46.78;;
50350;SDS011;36250;48.740;22.174;2022-12-07T14:32:30;68.22;;;47.00;;
50350;SDS011;36250;48.740;22.174;2022-12-07T14:34:59;67.07;;;45.20;;
50350;SDS011;36250;48.740;22.174;2022-12-07T14:37:25;69.47;;;46.35;;
50350;SDS011;36250;48.740;22.174;2022-12-07T14:39:51;68.97;;;45.95;;
50350;SDS011;36250;48.740;22.174;2022-12-07T14:42:17;71.78;;;46.03;;
50350;SDS011;36250;48.740;22.174;2022-12-07T14:44:42;61.30;;;41.95;;
50350;SDS011;36250;48.740;22.174;2022-12-07T14:47:11;66.43;;;45.25;;
50350;SDS011;36250;48.740;22.174;2022-12-07T14:49:36;65.10;;;44.10;;
50350;SDS011;36250;48.740;22.174;2022-12-07T14:52:02;67.53;;;42.80;;
50350;SDS011;36250;48.740;22.174;2022-12-07T14:54:31;63.08;;;41.92;;
50350;SDS011;36250;48.740;22.174;2022-12-07T14:56:57;68.35;;;42.40;;
50350;SDS011;36250;48.740;22.174;2022-12-07T14:59:23;60.05;;;42.25;;
50350;SDS011;36250;48.740;22.174;2022-12-07T15:01:48;65.47;;;42.40;;
50350;SDS011;36250;48.740;22.174;2022-12-07T15:04:13;61.70;;;43.33;;
50350;SDS011;36250;48.740;22.174;2022-12-07T15:06:39;60.60;;;41.67;;
50350;SDS011;36250;48.740;22.174;2022-12-07T15:09:04;59.63;;;41.72;;
50350;SDS011;36250;48.740;22.174;2022-12-07T15:11:30;64.40;;;42.55;;
50350;SDS011;36250;48.740;22.174;2022-12-07T15:13:55;60.72;;;42.67;;
50350;SDS011;36250;48.740;22.174;2022-12-07T15:16:33;61.03;;;41.90;;
50350;SDS011;36250;48.740;22.174;2022-12-07T15:18:58;64.70;;;44.22;;
50350;SDS011;36250;48.740;22.174;2022-12-07T15:21:24;60.70;;;43.38;;
50350;SDS011;36250;48.740;22.174;2022-12-07T15:23:49;65.63;;;46.03;;
50350;SDS011;36250;48.740;22.174;2022-12-07T15:26:14;69.13;;;49.53;;
50350;SDS011;36250;48.740;22.174;2022-12-07T15:28:41;61.58;;;42.47;;
50350;SDS011;36250;48.740;22.174;2022-12-07T15:31:13;62.92;;;43.85;;
50350;SDS011;36250;48.740;22.174;2022-12-07T15:33:39;65.72;;;45.35;;
50350;SDS011;36250;48.740;22.174;2022-12-07T15:36:05;64.00;;;45.83;;
50350;SDS011;36250;48.740;22.174;2022-12-07T15:38:31;64.38;;;47.35;;
50350;SDS011;36250;48.740;22.174;2022-12-07T15:40:56;71.75;;;48.47;;
50350;SDS011;36250;48.740;22.174;2022-12-07T15:43:22;68.85;;;49.65;;
50350;SDS011;36250;48.740;22.174;2022-12-07T15:46:06;72.15;;;49.78;;
50350;SDS011;36250;48.740;22.174;2022-12-07T15:48:31;71.43;;;47.60;;
50350;SDS011;36250;48.740;22.174;2022-12-07T15:51:03;63.80;;;45.17;;
50350;SDS011;36250;48.740;22.174;2022-12-07T15:53:33;64.15;;;41.90;;
50350;SDS011;36250;48.740;22.174;2022-12-07T15:55:59;66.90;;;44.85;;
50350;SDS011;36250;48.740;22.174;2022-12-07T15:58:24;79.18;;;46.58;;
50350;SDS011;36250;48.740;22.174;2022-12-07T16:00:50;63.78;;;44.17;;
50350;SDS011;36250;48.740;22.174;2022-12-07T16:03:15;69.10;;;46.83;;
50350;SDS011;36250;48.740;22.174;2022-12-07T16:05:41;67.25;;;44.33;;
50350;SDS011;36250;48.740;22.174;2022-12-07T16:08:06;63.63;;;41.88;;
50350;SDS011;36250;48.740;22.174;2022-12-07T16:10:32;65.88;;;43.75;;
50350;SDS011;36250;48.740;22.174;2022-12-07T16:12:59;64.82;;;43.65;;
50350;SDS011;36250;48.740;22.174;2022-12-07T16:15:24;60.58;;;42.75;;
50350;SDS011;36250;48.740;22.174;2022-12-07T16:17:51;61.22;;;42.92;;
50350;SDS011;36250;48.740;22.174;2022-12-07T16:20:17;73.30;;;46.67;;
50350;SDS011;36250;48.740;22.174;2022-12-07T16:22:42;76.38;;;50.50;;
50350;SDS011;36250;48.740;22.174;2022-12-07T16:25:08;83.05;;;50.65;;
50350;SDS011;36250;48.740;22.174;2022-12-07T16:27:34;80.07;;;51.80;;
50350;SDS011;36250;48.740;22.174;2022-12-07T16:29:59;70.93;;;48.60;;
50350;SDS011;36250;48.740;22.174;2022-12-07T16:32:25;65.30;;;44.17;;
50350;SDS011;36250;48.740;22.174;2022-12-07T16:34:50;64.80;;;44.20;;
50350;SDS011;36250;48.740;22.174;2022-12-07T16:37:15;62.75;;;43.15;;
50350;SDS011;36250;48.740;22.174;2022-12-07T16:39:41;57.47;;;40.90;;